sensor_id;sensor_type;location;lat;lon;timestamp;temperature;humidity
75210;DHT22;63796;53.136;14.882;2023-06-10T00:02:25;18.10;99.90
75210;DHT22;63796;53.136;14.882;2023-06-10T00:04:53;18.20;99.90
75210;DHT22;63796;53.136;14.882;2023-06-10T00:07:20;18.10;99.90
75210;DHT22;63796;53.136;14.882;2023-06-10T00:09:47;18.00;99.90
75210;DHT22;63796;53.136;14.882;2023-06-10T00:12:15;17.90;99.90
75210;DHT22;63796;53.136;14.882;2023-06-10T00:14:43;18.00;99.90
75210;DHT22;63796;53.136;14.882;2023-06-10T00:17:11;17.80;99.90
75210;DHT22;63796;53.136;14.882;2023-06-10T00:19:38;17.90;99.90
75210;DHT22;63796;53.136;14.882;2023-06-10T00:22:08;18.00;99.90
75210;DHT22;63796;53.136;14.882;2023-06-10T00:24:37;18.00;99.90
75210;DHT22;63796;53.136;14.882;2023-06-10T00:27:06;17.90;99.90
75210;DHT22;63796;53.136;14.882;2023-06-10T00:29:34;17.80;99.90
75210;DHT22;63796;53.136;14.882;2023-06-10T00:32:01;17.70;99.90
75210;DHT22;63796;53.136;14.882;2023-06-10T00:34:29;17.60;99.90
75210;DHT22;63796;53.136;14.882;2023-06-10T00:36:56;17.70;99.90
75210;DHT22;63796;53.136;14.882;2023-06-10T00:39:23;17.60;99.90
75210;DHT22;63796;53.136;14.882;2023-06-10T00:41:51;17.40;99.90
75210;DHT22;63796;53.136;14.882;2023-06-10T00:44:18;17.40;99.90
75210;DHT22;63796;53.136;14.882;2023-06-10T00:46:45;17.40;99.90
75210;DHT22;63796;53.136;14.882;2023-06-10T00:49:12;17.40;99.90
75210;DHT22;63796;53.136;14.882;2023-06-10T00:51:39;17.20;99.90
75210;DHT22;63796;53.136;14.882;2023-06-10T00:54:07;17.30;99.90
75210;DHT22;63796;53.136;14.882;2023-06-10T00:56:35;17.10;99.90
75210;DHT22;63796;53.136;14.882;2023-06-10T00:59:03;17.00;99.90
75210;DHT22;63796;53.136;14.882;2023-06-10T01:01:30;16.90;99.90
75210;DHT22;63796;53.136;14.882;2023-06-10T01:03:59;16.90;99.90
75210;DHT22;63796;53.136;14.882;2023-06-10T01:09:23;16.90;99.90
75210;DHT22;63796;53.136;14.882;2023-06-10T01:14:36;16.80;99.90
75210;DHT22;63796;53.136;14.882;2023-06-10T01:17:06;16.70;99.90
75210;DHT22;63796;53.136;14.882;2023-06-10T01:19:36;16.80;99.90
75210;DHT22;63796;53.136;14.882;2023-06-10T01:22:04;16.60;99.90
75210;DHT22;63796;53.136;14.882;2023-06-10T01:24:32;16.80;99.90
75210;DHT22;63796;53.136;14.882;2023-06-10T01:27:01;16.60;99.90
75210;DHT22;63796;53.136;14.882;2023-06-10T01:32:15;16.80;99.90
75210;DHT22;63796;53.136;14.882;2023-06-10T01:34:45;16.80;99.90
75210;DHT22;63796;53.136;14.882;2023-06-10T01:37:13;16.70;99.90
75210;DHT22;63796;53.136;14.882;2023-06-10T01:39:42;16.50;99.90
75210;DHT22;63796;53.136;14.882;2023-06-10T01:42:10;16.60;99.90
75210;DHT22;63796;53.136;14.882;2023-06-10T01:44:39;16.60;99.90
75210;DHT22;63796;53.136;14.882;2023-06-10T01:47:06;16.70;99.90
75210;DHT22;63796;53.136;14.882;2023-06-10T01:49:34;16.40;99.90
75210;DHT22;63796;53.136;14.882;2023-06-10T01:52:01;16.70;99.90
75210;DHT22;63796;53.136;14.882;2023-06-10T01:54:28;16.70;99.90
75210;DHT22;63796;53.136;14.882;2023-06-10T01:56:56;16.80;99.90
75210;DHT22;63796;53.136;14.882;2023-06-10T01:59:23;16.80;99.90
75210;DHT22;63796;53.136;14.882;2023-06-10T02:01:50;16.70;99.90
75210;DHT22;63796;53.136;14.882;2023-06-10T02:04:17;16.70;99.90
75210;DHT22;63796;53.136;14.882;2023-06-10T02:06:45;16.70;99.90
75210;DHT22;63796;53.136;14.882;2023-06-10T02:09:12;16.70;99.90
75210;DHT22;63796;53.136;14.882;2023-06-10T02:11:39;16.70;99.90
75210;DHT22;63796;53.136;14.882;2023-06-10T02:14:06;16.80;99.90
75210;DHT22;63796;53.136;14.882;2023-06-10T02:16:34;16.70;99.90
75210;DHT22;63796;53.136;14.882;2023-06-10T02:19:01;16.70;99.90
75210;DHT22;63796;53.136;14.882;2023-06-10T02:21:30;16.60;99.90
75210;DHT22;63796;53.136;14.882;2023-06-10T02:23:57;16.60;99.90
75210;DHT22;63796;53.136;14.882;2023-06-10T02:26:24;16.60;99.90
75210;DHT22;63796;53.136;14.882;2023-06-10T02:28:52;16.60;99.90
75210;DHT22;63796;53.136;14.882;2023-06-10T02:31:20;16.80;99.90
75210;DHT22;63796;53.136;14.882;2023-06-10T02:33:48;16.80;99.90
75210;DHT22;63796;53.136;14.882;2023-06-10T02:36:15;16.70;99.90
75210;DHT22;63796;53.136;14.882;2023-06-10T02:38:42;16.90;99.90
75210;DHT22;63796;53.136;14.882;2023-06-10T02:41:09;16.70;99.90
75210;DHT22;63796;53.136;14.882;2023-06-10T02:43:36;16.70;99.90
75210;DHT22;63796;53.136;14.882;2023-06-10T02:46:04;16.90;99.90
75210;DHT22;63796;53.136;14.882;2023-06-10T02:48:31;16.90;99.90
75210;DHT22;63796;53.136;14.882;2023-06-10T02:50:58;16.90;99.90
75210;DHT22;63796;53.136;14.882;2023-06-10T02:53:26;16.90;99.90
75210;DHT22;63796;53.136;14.882;2023-06-10T02:55:53;16.80;99.90
75210;DHT22;63796;53.136;14.882;2023-06-10T02:58:20;16.70;99.90
75210;DHT22;63796;53.136;14.882;2023-06-10T03:00:48;16.70;99.90
75210;DHT22;63796;53.136;14.882;2023-06-10T03:03:15;16.80;99.90
75210;DHT22;63796;53.136;14.882;2023-06-10T03:05:43;17.00;99.90
75210;DHT22;63796;53.136;14.882;2023-06-10T03:08:10;16.90;99.90
75210;DHT22;63796;53.136;14.882;2023-06-10T03:10:37;16.70;99.90
75210;DHT22;63796;53.136;14.882;2023-06-10T03:13:04;17.00;99.90
75210;DHT22;63796;53.136;14.882;2023-06-10T03:15:31;16.90;99.90
75210;DHT22;63796;53.136;14.882;2023-06-10T03:18:00;17.00;99.90
75210;DHT22;63796;53.136;14.882;2023-06-10T03:20:27;16.80;99.90
75210;DHT22;63796;53.136;14.882;2023-06-10T03:22:55;16.90;99.90
75210;DHT22;63796;53.136;14.882;2023-06-10T03:25:22;17.00;99.90
75210;DHT22;63796;53.136;14.882;2023-06-10T03:27:49;17.10;99.90
75210;DHT22;63796;53.136;14.882;2023-06-10T03:30:17;17.20;99.90
75210;DHT22;63796;53.136;14.882;2023-06-10T03:32:45;17.30;99.90
75210;DHT22;63796;53.136;14.882;2023-06-10T03:35:12;17.30;99.90
75210;DHT22;63796;53.136;14.882;2023-06-10T03:37:39;17.20;99.90
75210;DHT22;63796;53.136;14.882;2023-06-10T03:40:07;17.30;99.90
75210;DHT22;63796;53.136;14.882;2023-06-10T03:42:35;17.20;99.90
75210;DHT22;63796;53.136;14.882;2023-06-10T03:45:03;17.30;99.90
75210;DHT22;63796;53.136;14.882;2023-06-10T03:47:34;17.30;99.90
75210;DHT22;63796;53.136;14.882;2023-06-10T03:50:03;17.40;99.90
75210;DHT22;63796;53.136;14.882;2023-06-10T03:52:30;17.60;99.90
75210;DHT22;63796;53.136;14.882;2023-06-10T03:54:58;17.70;99.90
75210;DHT22;63796;53.136;14.882;2023-06-10T03:57:25;17.80;99.90
75210;DHT22;63796;53.136;14.882;2023-06-10T03:59:53;17.90;99.90
75210;DHT22;63796;53.136;14.882;2023-06-10T04:02:20;18.00;99.90
75210;DHT22;63796;53.136;14.882;2023-06-10T04:04:48;18.10;99.90
75210;DHT22;63796;53.136;14.882;2023-06-10T04:07:16;18.20;99.90
75210;DHT22;63796;53.136;14.882;2023-06-10T04:09:43;18.30;99.90
75210;DHT22;63796;53.136;14.882;2023-06-10T04:12:10;18.30;99.90
75210;DHT22;63796;53.136;14.882;2023-06-10T04:14:37;18.40;99.90
75210;DHT22;63796;53.136;14.882;2023-06-10T04:17:04;18.40;99.90
75210;DHT22;63796;53.136;14.882;2023-06-10T04:19:35;18.60;99.90
75210;DHT22;63796;53.136;14.882;2023-06-10T04:22:03;18.70;99.90
75210;DHT22;63796;53.136;14.882;2023-06-10T04:24:30;18.90;99.90
75210;DHT22;63796;53.136;14.882;2023-06-10T04:26:57;19.00;99.90
75210;DHT22;63796;53.136;14.882;2023-06-10T04:29:25;19.10;99.90
75210;DHT22;63796;53.136;14.882;2023-06-10T04:31:52;19.10;99.90
75210;DHT22;63796;53.136;14.882;2023-06-10T04:34:19;19.10;99.90
75210;DHT22;63796;53.136;14.882;2023-06-10T04:36:46;19.10;99.90
75210;DHT22;63796;53.136;14.882;2023-06-10T04:39:14;19.20;99.90
75210;DHT22;63796;53.136;14.882;2023-06-10T04:41:43;19.40;99.90
75210;DHT22;63796;53.136;14.882;2023-06-10T04:44:10;19.40;99.90
75210;DHT22;63796;53.136;14.882;2023-06-10T04:46:38;19.50;99.90
75210;DHT22;63796;53.136;14.882;2023-06-10T04:49:05;19.70;99.90
75210;DHT22;63796;53.136;14.882;2023-06-10T04:51:32;19.80;99.90
75210;DHT22;63796;53.136;14.882;2023-06-10T04:53:59;19.90;99.90
75210;DHT22;63796;53.136;14.882;2023-06-10T04:56:30;20.20;99.90
75210;DHT22;63796;53.136;14.882;2023-06-10T04:58:58;20.30;99.90
75210;DHT22;63796;53.136;14.882;2023-06-10T05:01:25;20.50;99.90
75210;DHT22;63796;53.136;14.882;2023-06-10T05:03:52;20.60;99.90
75210;DHT22;63796;53.136;14.882;2023-06-10T05:06:20;20.80;99.90
75210;DHT22;63796;53.136;14.882;2023-06-10T05:08:47;21.00;99.90
75210;DHT22;63796;53.136;14.882;2023-06-10T05:11:14;21.60;99.90
75210;DHT22;63796;53.136;14.882;2023-06-10T05:13:41;21.90;99.90
75210;DHT22;63796;53.136;14.882;2023-06-10T05:16:10;22.10;99.90
75210;DHT22;63796;53.136;14.882;2023-06-10T05:18:38;22.20;99.90
75210;DHT22;63796;53.136;14.882;2023-06-10T05:21:05;22.20;99.90
75210;DHT22;63796;53.136;14.882;2023-06-10T05:23:32;22.60;99.90
75210;DHT22;63796;53.136;14.882;2023-06-10T05:26:00;23.10;99.90
75210;DHT22;63796;53.136;14.882;2023-06-10T05:28:27;23.60;99.90
75210;DHT22;63796;53.136;14.882;2023-06-10T05:30:54;23.70;99.90
75210;DHT22;63796;53.136;14.882;2023-06-10T05:33:21;24.10;99.90
75210;DHT22;63796;53.136;14.882;2023-06-10T05:35:49;24.20;99.90
75210;DHT22;63796;53.136;14.882;2023-06-10T05:38:16;24.70;99.90
75210;DHT22;63796;53.136;14.882;2023-06-10T05:40:43;26.50;99.90
75210;DHT22;63796;53.136;14.882;2023-06-10T05:43:10;28.50;99.90
75210;DHT22;63796;53.136;14.882;2023-06-10T05:45:38;29.80;99.90
75210;DHT22;63796;53.136;14.882;2023-06-10T05:48:07;30.50;99.90
75210;DHT22;63796;53.136;14.882;2023-06-10T05:50:34;30.90;99.90
75210;DHT22;63796;53.136;14.882;2023-06-10T05:53:05;30.10;99.20
75210;DHT22;63796;53.136;14.882;2023-06-10T05:55:34;27.00;99.90
75210;DHT22;63796;53.136;14.882;2023-06-10T05:58:01;24.90;99.90
75210;DHT22;63796;53.136;14.882;2023-06-10T06:00:28;24.20;99.90
75210;DHT22;63796;53.136;14.882;2023-06-10T06:02:55;24.00;99.90
75210;DHT22;63796;53.136;14.882;2023-06-10T06:05:24;23.80;99.90
75210;DHT22;63796;53.136;14.882;2023-06-10T06:07:51;24.40;99.90
75210;DHT22;63796;53.136;14.882;2023-06-10T06:10:19;24.30;99.90
75210;DHT22;63796;53.136;14.882;2023-06-10T06:12:46;24.00;99.90
75210;DHT22;63796;53.136;14.882;2023-06-10T06:15:13;24.20;99.90
75210;DHT22;63796;53.136;14.882;2023-06-10T06:17:40;23.90;99.90
75210;DHT22;63796;53.136;14.882;2023-06-10T06:20:08;23.80;99.90
75210;DHT22;63796;53.136;14.882;2023-06-10T06:22:35;23.80;99.90
75210;DHT22;63796;53.136;14.882;2023-06-10T06:25:02;24.30;99.90
75210;DHT22;63796;53.136;14.882;2023-06-10T06:27:30;23.80;99.90
75210;DHT22;63796;53.136;14.882;2023-06-10T06:29:57;24.00;99.90
75210;DHT22;63796;53.136;14.882;2023-06-10T06:32:25;24.30;99.90
75210;DHT22;63796;53.136;14.882;2023-06-10T06:34:54;25.80;99.90
75210;DHT22;63796;53.136;14.882;2023-06-10T06:37:22;26.50;99.90
75210;DHT22;63796;53.136;14.882;2023-06-10T06:39:53;28.60;99.90
75210;DHT22;63796;53.136;14.882;2023-06-10T06:42:20;30.60;99.90
75210;DHT22;63796;53.136;14.882;2023-06-10T06:44:47;30.70;98.70
75210;DHT22;63796;53.136;14.882;2023-06-10T06:47:14;29.70;99.70
75210;DHT22;63796;53.136;14.882;2023-06-10T06:49:44;31.30;96.30
75210;DHT22;63796;53.136;14.882;2023-06-10T06:52:12;29.80;98.20
75210;DHT22;63796;53.136;14.882;2023-06-10T06:54:40;32.80;93.80
75210;DHT22;63796;53.136;14.882;2023-06-10T06:57:07;31.50;93.60
75210;DHT22;63796;53.136;14.882;2023-06-10T06:59:35;32.30;92.90
75210;DHT22;63796;53.136;14.882;2023-06-10T07:02:02;31.90;92.70
75210;DHT22;63796;53.136;14.882;2023-06-10T07:04:30;32.40;91.80
75210;DHT22;63796;53.136;14.882;2023-06-10T07:06:57;33.30;90.30
75210;DHT22;63796;53.136;14.882;2023-06-10T07:09:24;32.70;90.10
75210;DHT22;63796;53.136;14.882;2023-06-10T07:11:51;32.10;89.60
75210;DHT22;63796;53.136;14.882;2023-06-10T07:14:18;33.30;87.60
75210;DHT22;63796;53.136;14.882;2023-06-10T07:16:46;34.60;84.30
75210;DHT22;63796;53.136;14.882;2023-06-10T07:19:15;34.70;81.70
75210;DHT22;63796;53.136;14.882;2023-06-10T07:21:42;35.50;79.20
75210;DHT22;63796;53.136;14.882;2023-06-10T07:24:10;33.60;80.60
75210;DHT22;63796;53.136;14.882;2023-06-10T07:26:37;33.70;81.30
75210;DHT22;63796;53.136;14.882;2023-06-10T07:29:04;33.30;82.70
75210;DHT22;63796;53.136;14.882;2023-06-10T07:31:31;32.70;80.70
75210;DHT22;63796;53.136;14.882;2023-06-10T07:33:59;31.90;84.80
75210;DHT22;63796;53.136;14.882;2023-06-10T07:36:27;33.20;81.90
75210;DHT22;63796;53.136;14.882;2023-06-10T07:38:55;32.90;80.90
75210;DHT22;63796;53.136;14.882;2023-06-10T07:41:23;34.40;77.40
75210;DHT22;63796;53.136;14.882;2023-06-10T07:43:54;34.50;77.00
75210;DHT22;63796;53.136;14.882;2023-06-10T07:46:23;34.50;75.80
75210;DHT22;63796;53.136;14.882;2023-06-10T07:48:51;31.30;82.00
75210;DHT22;63796;53.136;14.882;2023-06-10T07:51:18;30.40;85.00
75210;DHT22;63796;53.136;14.882;2023-06-10T07:53:46;30.60;86.80
75210;DHT22;63796;53.136;14.882;2023-06-10T07:56:13;30.50;86.20
75210;DHT22;63796;53.136;14.882;2023-06-10T07:58:40;31.30;84.10
75210;DHT22;63796;53.136;14.882;2023-06-10T08:01:07;31.90;82.40
75210;DHT22;63796;53.136;14.882;2023-06-10T08:03:35;33.40;78.90
75210;DHT22;63796;53.136;14.882;2023-06-10T08:06:03;34.20;76.10
75210;DHT22;63796;53.136;14.882;2023-06-10T08:08:32;33.30;77.20
75210;DHT22;63796;53.136;14.882;2023-06-10T08:11:01;33.60;77.60
75210;DHT22;63796;53.136;14.882;2023-06-10T08:13:28;32.70;79.60
75210;DHT22;63796;53.136;14.882;2023-06-10T08:15:55;33.80;75.70
75210;DHT22;63796;53.136;14.882;2023-06-10T08:18:22;33.10;75.50
75210;DHT22;63796;53.136;14.882;2023-06-10T08:20:49;31.30;80.00
75210;DHT22;63796;53.136;14.882;2023-06-10T08:23:17;31.50;79.80
75210;DHT22;63796;53.136;14.882;2023-06-10T08:25:44;32.40;77.40
75210;DHT22;63796;53.136;14.882;2023-06-10T08:28:11;34.50;73.60
75210;DHT22;63796;53.136;14.882;2023-06-10T08:30:38;35.50;71.90
75210;DHT22;63796;53.136;14.882;2023-06-10T08:33:05;38.30;68.50
75210;DHT22;63796;53.136;14.882;2023-06-10T08:35:33;39.00;64.30
75210;DHT22;63796;53.136;14.882;2023-06-10T08:38:00;35.10;70.50
75210;DHT22;63796;53.136;14.882;2023-06-10T08:40:27;34.80;71.20
75210;DHT22;63796;53.136;14.882;2023-06-10T08:45:36;34.90;69.80
75210;DHT22;63796;53.136;14.882;2023-06-10T08:48:04;36.30;66.70
75210;DHT22;63796;53.136;14.882;2023-06-10T08:50:36;37.20;64.50
75210;DHT22;63796;53.136;14.882;2023-06-10T08:53:04;36.10;66.80
75210;DHT22;63796;53.136;14.882;2023-06-10T08:55:35;37.40;63.10
75210;DHT22;63796;53.136;14.882;2023-06-10T08:58:04;34.50;68.10
75210;DHT22;63796;53.136;14.882;2023-06-10T09:00:31;33.20;71.80
75210;DHT22;63796;53.136;14.882;2023-06-10T09:02:59;35.50;67.10
75210;DHT22;63796;53.136;14.882;2023-06-10T09:05:33;38.60;63.30
75210;DHT22;63796;53.136;14.882;2023-06-10T09:08:01;40.40;58.50
75210;DHT22;63796;53.136;14.882;2023-06-10T09:10:29;36.70;62.10
75210;DHT22;63796;53.136;14.882;2023-06-10T09:12:56;36.60;64.30
75210;DHT22;63796;53.136;14.882;2023-06-10T09:15:23;33.20;69.00
75210;DHT22;63796;53.136;14.882;2023-06-10T09:17:51;30.60;74.90
75210;DHT22;63796;53.136;14.882;2023-06-10T09:20:18;30.60;75.00
75210;DHT22;63796;53.136;14.882;2023-06-10T09:22:46;32.00;74.80
75210;DHT22;63796;53.136;14.882;2023-06-10T09:25:13;34.10;69.30
75210;DHT22;63796;53.136;14.882;2023-06-10T09:27:47;35.10;66.40
75210;DHT22;63796;53.136;14.882;2023-06-10T09:30:32;36.00;64.30
75210;DHT22;63796;53.136;14.882;2023-06-10T09:33:02;33.80;66.30
75210;DHT22;63796;53.136;14.882;2023-06-10T09:35:36;32.80;67.30
75210;DHT22;63796;53.136;14.882;2023-06-10T09:38:03;34.70;66.50
75210;DHT22;63796;53.136;14.882;2023-06-10T09:40:30;36.40;62.90
75210;DHT22;63796;53.136;14.882;2023-06-10T09:42:58;35.40;62.10
75210;DHT22;63796;53.136;14.882;2023-06-10T09:45:30;35.80;60.90
75210;DHT22;63796;53.136;14.882;2023-06-10T09:48:01;35.20;63.00
75210;DHT22;63796;53.136;14.882;2023-06-10T09:50:32;34.40;64.00
75210;DHT22;63796;53.136;14.882;2023-06-10T09:53:00;35.40;64.70
75210;DHT22;63796;53.136;14.882;2023-06-10T09:55:30;36.00;60.10
75210;DHT22;63796;53.136;14.882;2023-06-10T09:58:00;37.70;59.20
75210;DHT22;63796;53.136;14.882;2023-06-10T10:00:27;39.10;57.00
75210;DHT22;63796;53.136;14.882;2023-06-10T10:02:54;40.70;55.60
75210;DHT22;63796;53.136;14.882;2023-06-10T10:05:22;40.50;55.20
75210;DHT22;63796;53.136;14.882;2023-06-10T10:07:50;39.50;55.40
75210;DHT22;63796;53.136;14.882;2023-06-10T10:10:19;40.30;55.10
75210;DHT22;63796;53.136;14.882;2023-06-10T10:12:47;41.30;53.60
75210;DHT22;63796;53.136;14.882;2023-06-10T10:15:15;37.70;56.80
75210;DHT22;63796;53.136;14.882;2023-06-10T10:20:35;35.50;58.20
75210;DHT22;63796;53.136;14.882;2023-06-10T10:23:07;35.70;58.80
75210;DHT22;63796;53.136;14.882;2023-06-10T10:25:38;35.80;58.60
75210;DHT22;63796;53.136;14.882;2023-06-10T10:28:08;36.30;58.50
75210;DHT22;63796;53.136;14.882;2023-06-10T10:30:39;35.60;59.30
75210;DHT22;63796;53.136;14.882;2023-06-10T10:33:27;35.60;59.60
75210;DHT22;63796;53.136;14.882;2023-06-10T10:36:00;35.30;59.50
75210;DHT22;63796;53.136;14.882;2023-06-10T10:38:27;35.90;58.90
75210;DHT22;63796;53.136;14.882;2023-06-10T10:40:55;34.30;60.10
75210;DHT22;63796;53.136;14.882;2023-06-10T10:43:26;34.90;59.80
75210;DHT22;63796;53.136;14.882;2023-06-10T10:45:59;33.50;60.00
75210;DHT22;63796;53.136;14.882;2023-06-10T10:48:27;34.40;59.40
75210;DHT22;63796;53.136;14.882;2023-06-10T10:51:01;34.50;58.10
75210;DHT22;63796;53.136;14.882;2023-06-10T10:53:29;35.60;56.80
75210;DHT22;63796;53.136;14.882;2023-06-10T10:56:00;37.80;54.90
75210;DHT22;63796;53.136;14.882;2023-06-10T10:58:31;39.30;53.80
75210;DHT22;63796;53.136;14.882;2023-06-10T11:01:09;37.20;55.40
75210;DHT22;63796;53.136;14.882;2023-06-10T11:03:42;37.70;54.30
75210;DHT22;63796;53.136;14.882;2023-06-10T11:06:14;37.60;54.50
75210;DHT22;63796;53.136;14.882;2023-06-10T11:11:44;37.20;56.10
75210;DHT22;63796;53.136;14.882;2023-06-10T11:14:16;36.70;55.10
75210;DHT22;63796;53.136;14.882;2023-06-10T11:16:57;36.30;55.30
75210;DHT22;63796;53.136;14.882;2023-06-10T11:19:35;37.30;54.60
75210;DHT22;63796;53.136;14.882;2023-06-10T11:22:07;36.30;54.80
75210;DHT22;63796;53.136;14.882;2023-06-10T11:24:36;34.70;56.60
75210;DHT22;63796;53.136;14.882;2023-06-10T11:27:20;37.90;53.50
75210;DHT22;63796;53.136;14.882;2023-06-10T11:32:31;36.10;55.40
75210;DHT22;63796;53.136;14.882;2023-06-10T11:35:02;36.00;54.80
75210;DHT22;63796;53.136;14.882;2023-06-10T11:37:30;35.80;54.90
75210;DHT22;63796;53.136;14.882;2023-06-10T11:39:57;36.20;54.20
75210;DHT22;63796;53.136;14.882;2023-06-10T11:42:26;35.70;54.10
75210;DHT22;63796;53.136;14.882;2023-06-10T11:44:53;38.30;52.80
75210;DHT22;63796;53.136;14.882;2023-06-10T11:47:21;40.50;51.30
75210;DHT22;63796;53.136;14.882;2023-06-10T11:49:55;38.80;51.80
75210;DHT22;63796;53.136;14.882;2023-06-10T11:52:27;36.00;54.40
75210;DHT22;63796;53.136;14.882;2023-06-10T11:54:55;36.20;54.30
75210;DHT22;63796;53.136;14.882;2023-06-10T11:57:23;36.10;54.20
75210;DHT22;63796;53.136;14.882;2023-06-10T11:59:50;35.90;54.00
75210;DHT22;63796;53.136;14.882;2023-06-10T12:02:17;32.60;57.00
75210;DHT22;63796;53.136;14.882;2023-06-10T12:04:46;31.20;60.10
75210;DHT22;63796;53.136;14.882;2023-06-10T12:07:17;30.70;60.10
75210;DHT22;63796;53.136;14.882;2023-06-10T12:09:45;30.10;61.90
75210;DHT22;63796;53.136;14.882;2023-06-10T12:12:12;30.00;61.40
75210;DHT22;63796;53.136;14.882;2023-06-10T12:20:02;29.60;62.00
75210;DHT22;63796;53.136;14.882;2023-06-10T12:25:09;30.30;61.90
75210;DHT22;63796;53.136;14.882;2023-06-10T12:27:39;29.90;62.20
75210;DHT22;63796;53.136;14.882;2023-06-10T12:30:07;30.00;62.70
75210;DHT22;63796;53.136;14.882;2023-06-10T12:32:39;29.50;63.10
75210;DHT22;63796;53.136;14.882;2023-06-10T12:35:11;29.30;63.00
75210;DHT22;63796;53.136;14.882;2023-06-10T12:37:40;29.60;63.00
75210;DHT22;63796;53.136;14.882;2023-06-10T12:40:10;30.00;62.70
75210;DHT22;63796;53.136;14.882;2023-06-10T12:42:38;30.10;60.90
75210;DHT22;63796;53.136;14.882;2023-06-10T12:45:06;30.10;61.10
75210;DHT22;63796;53.136;14.882;2023-06-10T12:47:36;29.30;61.90
75210;DHT22;63796;53.136;14.882;2023-06-10T12:50:08;29.30;62.60
75210;DHT22;63796;53.136;14.882;2023-06-10T12:52:36;29.30;64.10
75210;DHT22;63796;53.136;14.882;2023-06-10T12:55:03;29.70;63.10
75210;DHT22;63796;53.136;14.882;2023-06-10T12:57:31;29.30;63.30
75210;DHT22;63796;53.136;14.882;2023-06-10T12:59:58;29.20;62.80
75210;DHT22;63796;53.136;14.882;2023-06-10T13:02:31;29.60;61.80
75210;DHT22;63796;53.136;14.882;2023-06-10T13:04:59;29.20;63.00
75210;DHT22;63796;53.136;14.882;2023-06-10T13:07:26;29.50;62.40
75210;DHT22;63796;53.136;14.882;2023-06-10T13:09:53;29.80;62.90
75210;DHT22;63796;53.136;14.882;2023-06-10T13:12:21;30.10;60.60
75210;DHT22;63796;53.136;14.882;2023-06-10T13:15:08;30.20;60.90
75210;DHT22;63796;53.136;14.882;2023-06-10T13:17:36;30.60;59.80
75210;DHT22;63796;53.136;14.882;2023-06-10T13:20:05;29.20;60.00
75210;DHT22;63796;53.136;14.882;2023-06-10T13:22:33;29.20;60.90
75210;DHT22;63796;53.136;14.882;2023-06-10T13:25:05;29.30;60.20
75210;DHT22;63796;53.136;14.882;2023-06-10T13:27:36;29.40;61.50
75210;DHT22;63796;53.136;14.882;2023-06-10T13:30:06;30.10;59.30
75210;DHT22;63796;53.136;14.882;2023-06-10T13:32:36;29.40;59.30
75210;DHT22;63796;53.136;14.882;2023-06-10T13:35:04;29.70;59.30
75210;DHT22;63796;53.136;14.882;2023-06-10T13:37:32;30.50;61.00
75210;DHT22;63796;53.136;14.882;2023-06-10T13:40:01;30.60;59.10
75210;DHT22;63796;53.136;14.882;2023-06-10T13:42:29;30.60;59.10
75210;DHT22;63796;53.136;14.882;2023-06-10T13:44:56;30.20;58.80
75210;DHT22;63796;53.136;14.882;2023-06-10T13:47:24;29.60;59.60
75210;DHT22;63796;53.136;14.882;2023-06-10T13:49:52;29.30;60.00
75210;DHT22;63796;53.136;14.882;2023-06-10T13:52:19;29.80;61.10
75210;DHT22;63796;53.136;14.882;2023-06-10T13:54:47;30.50;60.00
75210;DHT22;63796;53.136;14.882;2023-06-10T13:57:14;30.30;58.70
75210;DHT22;63796;53.136;14.882;2023-06-10T13:59:41;30.20;59.40
75210;DHT22;63796;53.136;14.882;2023-06-10T14:02:09;30.30;58.80
75210;DHT22;63796;53.136;14.882;2023-06-10T14:04:37;29.70;59.90
75210;DHT22;63796;53.136;14.882;2023-06-10T14:07:04;29.60;60.90
75210;DHT22;63796;53.136;14.882;2023-06-10T14:09:31;30.30;61.80
75210;DHT22;63796;53.136;14.882;2023-06-10T14:11:59;30.00;61.40
75210;DHT22;63796;53.136;14.882;2023-06-10T14:14:26;29.70;62.50
75210;DHT22;63796;53.136;14.882;2023-06-10T14:16:53;29.70;60.80
75210;DHT22;63796;53.136;14.882;2023-06-10T14:19:20;29.30;60.60
75210;DHT22;63796;53.136;14.882;2023-06-10T14:21:48;29.40;60.70
75210;DHT22;63796;53.136;14.882;2023-06-10T14:24:16;29.50;60.00
75210;DHT22;63796;53.136;14.882;2023-06-10T14:26:43;29.50;61.10
75210;DHT22;63796;53.136;14.882;2023-06-10T14:29:10;29.60;60.00
75210;DHT22;63796;53.136;14.882;2023-06-10T14:31:40;29.40;60.20
75210;DHT22;63796;53.136;14.882;2023-06-10T14:34:08;29.20;61.20
75210;DHT22;63796;53.136;14.882;2023-06-10T14:36:36;28.90;61.20
75210;DHT22;63796;53.136;14.882;2023-06-10T14:39:04;28.80;61.00
75210;DHT22;63796;53.136;14.882;2023-06-10T14:41:31;28.70;61.60
75210;DHT22;63796;53.136;14.882;2023-06-10T14:43:58;28.60;63.10
75210;DHT22;63796;53.136;14.882;2023-06-10T14:46:25;28.40;63.80
75210;DHT22;63796;53.136;14.882;2023-06-10T14:48:53;28.30;63.80
75210;DHT22;63796;53.136;14.882;2023-06-10T14:51:20;28.30;63.70
75210;DHT22;63796;53.136;14.882;2023-06-10T14:53:47;28.40;62.20
75210;DHT22;63796;53.136;14.882;2023-06-10T14:56:15;28.60;61.90
75210;DHT22;63796;53.136;14.882;2023-06-10T14:58:42;28.70;62.40
75210;DHT22;63796;53.136;14.882;2023-06-10T15:01:09;28.60;61.30
75210;DHT22;63796;53.136;14.882;2023-06-10T15:03:36;28.60;61.70
75210;DHT22;63796;53.136;14.882;2023-06-10T15:06:04;28.70;61.80
75210;DHT22;63796;53.136;14.882;2023-06-10T15:08:31;28.70;61.30
75210;DHT22;63796;53.136;14.882;2023-06-10T15:10:58;28.70;62.10
75210;DHT22;63796;53.136;14.882;2023-06-10T15:13:28;28.70;61.20
75210;DHT22;63796;53.136;14.882;2023-06-10T15:15:55;28.60;60.20
75210;DHT22;63796;53.136;14.882;2023-06-10T15:18:22;28.60;61.20
75210;DHT22;63796;53.136;14.882;2023-06-10T15:20:50;28.70;61.10
75210;DHT22;63796;53.136;14.882;2023-06-10T15:23:17;28.70;62.40
75210;DHT22;63796;53.136;14.882;2023-06-10T15:25:44;28.60;62.00
75210;DHT22;63796;53.136;14.882;2023-06-10T15:28:13;28.50;63.20
75210;DHT22;63796;53.136;14.882;2023-06-10T15:30:40;28.60;63.80
75210;DHT22;63796;53.136;14.882;2023-06-10T15:33:07;28.40;61.00
75210;DHT22;63796;53.136;14.882;2023-06-10T15:35:35;28.50;62.20
75210;DHT22;63796;53.136;14.882;2023-06-10T15:38:02;28.80;63.40
75210;DHT22;63796;53.136;14.882;2023-06-10T15:40:30;28.50;62.60
75210;DHT22;63796;53.136;14.882;2023-06-10T15:42:57;28.60;63.20
75210;DHT22;63796;53.136;14.882;2023-06-10T15:45:25;28.50;63.60
75210;DHT22;63796;53.136;14.882;2023-06-10T15:47:52;28.40;63.50
75210;DHT22;63796;53.136;14.882;2023-06-10T15:50:19;28.50;64.50